createdAt,value
2023-01-09T00:01:20.550Z,96.40
2023-01-09T00:03:47.591Z,96.50
2023-01-09T00:06:14.643Z,96.50
2023-01-09T00:08:41.653Z,96.60
2023-01-09T00:11:09.723Z,96.60
2023-01-09T00:13:37.879Z,96.60
2023-01-09T00:16:06.212Z,96.60
2023-01-09T00:18:33.766Z,96.70
2023-01-09T00:21:04.727Z,96.70
2023-01-09T00:23:31.717Z,96.70
2023-01-09T00:26:05.528Z,96.80
2023-01-09T00:28:33.720Z,96.80
2023-01-09T00:31:02.351Z,96.80
2023-01-09T00:33:41.849Z,96.80
2023-01-09T00:36:10.178Z,96.80
2023-01-09T00:38:37.584Z,96.90
2023-01-09T00:41:12.696Z,96.90
2023-01-09T00:43:45.288Z,96.90
2023-01-09T00:46:17.377Z,97.00
2023-01-09T00:48:47.080Z,97.00
2023-01-09T00:51:14.594Z,97.10
2023-01-09T00:53:43.323Z,97.10
2023-01-09T00:56:15.016Z,97.20
2023-01-09T00:58:43.030Z,97.20
2023-01-09T01:01:10.238Z,97.20
2023-01-09T01:03:37.385Z,97.30
2023-01-09T01:06:23.198Z,97.30
2023-01-09T01:08:50.426Z,97.40
2023-01-09T01:11:17.372Z,97.40
2023-01-09T01:13:44.380Z,97.40
2023-01-09T01:16:13.353Z,97.40
2023-01-09T01:18:41.173Z,97.50
2023-01-09T01:21:13.991Z,97.50
2023-01-09T01:23:41.274Z,97.50
2023-01-09T01:26:14.355Z,97.60
2023-01-09T01:28:42.173Z,97.60
2023-01-09T01:31:15.212Z,97.60
2023-01-09T01:33:42.395Z,97.60
2023-01-09T01:36:09.736Z,97.60
2023-01-09T01:38:37.233Z,97.60
2023-01-09T01:41:05.008Z,97.60
2023-01-09T01:43:52.198Z,97.60
2023-01-09T01:46:19.535Z,97.50
2023-01-09T01:48:49.871Z,97.60
2023-01-09T01:51:25.252Z,97.60
2023-01-09T01:53:55.707Z,97.60
2023-01-09T01:56:30.338Z,97.60
2023-01-09T01:59:05.623Z,97.70
2023-01-09T02:01:33.981Z,97.60
2023-01-09T02:04:02.779Z,97.60
2023-01-09T02:06:33.389Z,97.60
2023-01-09T02:09:03.033Z,97.70
2023-01-09T02:11:30.675Z,97.70
2023-01-09T02:14:02.174Z,97.70
2023-01-09T02:16:35.345Z,98.00
2023-01-09T02:19:20.522Z,97.80
2023-01-09T02:21:58.887Z,97.80
2023-01-09T02:24:49.965Z,97.80
2023-01-09T02:27:37.084Z,97.80
2023-01-09T02:30:37.645Z,97.90
2023-01-09T02:33:26.362Z,97.80
2023-01-09T02:36:19.482Z,97.80
2023-01-09T02:39:24.960Z,97.80
2023-01-09T02:42:12.953Z,97.90
2023-01-09T02:44:43.064Z,98.00
2023-01-09T02:47:16.208Z,97.90
2023-01-09T02:49:46.553Z,97.80
2023-01-09T02:52:41.558Z,97.70
2023-01-09T02:55:14.319Z,97.70
2023-01-09T02:58:28.341Z,97.70
2023-01-09T03:01:08.048Z,97.70
2023-01-09T03:03:57.620Z,97.80
2023-01-09T03:06:36.826Z,97.80
2023-01-09T03:09:12.210Z,97.70
2023-01-09T03:11:44.160Z,97.70
2023-01-09T03:14:24.280Z,97.80
2023-01-09T03:16:58.431Z,97.80
2023-01-09T03:19:29.890Z,97.80
2023-01-09T03:21:57.501Z,97.80
2023-01-09T03:24:27.137Z,97.80
2023-01-09T03:26:55.486Z,97.90
2023-01-09T03:29:22.879Z,97.90
2023-01-09T03:31:49.971Z,97.90
2023-01-09T03:34:17.099Z,98.00
2023-01-09T03:36:44.124Z,98.00
2023-01-09T03:39:11.317Z,98.00
2023-01-09T03:41:38.261Z,98.00
2023-01-09T03:44:05.245Z,98.10
2023-01-09T03:46:34.487Z,98.10
2023-01-09T03:49:01.771Z,98.10
2023-01-09T03:51:28.702Z,98.10
2023-01-09T03:53:55.788Z,98.10
2023-01-09T03:56:22.836Z,98.20
2023-01-09T03:58:50.392Z,98.20
2023-01-09T04:01:20.182Z,98.20
2023-01-09T04:03:48.739Z,98.20
2023-01-09T04:06:15.833Z,98.30
2023-01-09T04:08:42.916Z,98.30
2023-01-09T04:11:09.997Z,98.30
2023-01-09T04:13:37.016Z,98.30
2023-01-09T04:16:04.200Z,98.30
2023-01-09T04:18:31.391Z,98.30
2023-01-09T04:20:58.399Z,98.40
2023-01-09T04:23:25.455Z,98.30
2023-01-09T04:25:53.977Z,98.30
2023-01-09T04:28:23.290Z,98.30
2023-01-09T04:30:50.288Z,98.40
2023-01-09T04:33:17.557Z,98.40
2023-01-09T04:35:44.515Z,98.40
2023-01-09T04:38:11.563Z,98.40
2023-01-09T04:40:39.630Z,98.40
2023-01-09T04:43:06.731Z,98.40
2023-01-09T04:45:33.865Z,98.30
2023-01-09T04:48:01.041Z,98.30
2023-01-09T04:50:28.581Z,98.30
2023-01-09T04:52:56.838Z,98.40
2023-01-09T04:55:26.234Z,98.40
2023-01-09T04:57:53.242Z,98.30
2023-01-09T05:00:20.622Z,98.30
2023-01-09T05:02:47.618Z,98.20
2023-01-09T05:05:14.717Z,98.10
2023-01-09T05:07:42.083Z,98.10
2023-01-09T05:10:10.405Z,98.00
2023-01-09T05:12:37.704Z,98.00
2023-01-09T05:15:06.528Z,97.90
2023-01-09T05:17:33.594Z,97.90
2023-01-09T05:20:01.151Z,98.10
2023-01-09T05:22:28.355Z,97.90
2023-01-09T05:24:55.589Z,97.90
2023-01-09T05:27:22.933Z,97.80
2023-01-09T05:29:49.879Z,97.80
2023-01-09T05:32:17.231Z,97.80
2023-01-09T05:34:44.250Z,97.80
2023-01-09T05:37:11.347Z,97.80
2023-01-09T05:39:38.368Z,97.70
2023-01-09T05:42:05.413Z,97.70
2023-01-09T05:44:32.724Z,97.80
2023-01-09T05:47:01.918Z,97.80
2023-01-09T05:49:29.687Z,97.80
2023-01-09T05:51:56.995Z,97.80
2023-01-09T05:54:26.453Z,97.80
2023-01-09T05:56:56.162Z,97.70
2023-01-09T05:59:23.531Z,97.70
2023-01-09T06:01:50.921Z,97.80
2023-01-09T06:04:17.993Z,97.80
2023-01-09T06:06:44.988Z,97.80
2023-01-09T06:09:12.257Z,97.80
2023-01-09T06:11:39.327Z,97.90
2023-01-09T06:14:06.759Z,97.90
2023-01-09T06:16:33.837Z,97.80
2023-01-09T06:19:02.100Z,97.80
2023-01-09T06:21:29.635Z,97.80
2023-01-09T06:23:56.909Z,97.70
2023-01-09T06:26:24.974Z,97.70
2023-01-09T06:28:55.177Z,97.70
2023-01-09T06:31:26.450Z,97.70
2023-01-09T06:33:54.009Z,97.70
2023-01-09T06:36:22.646Z,97.60
2023-01-09T06:38:49.803Z,97.60
2023-01-09T06:41:17.084Z,97.60
2023-01-09T06:43:44.387Z,97.60
2023-01-09T06:46:11.738Z,97.50
2023-01-09T06:48:38.829Z,97.50
2023-01-09T06:51:06.104Z,97.50
2023-01-09T06:53:33.228Z,97.50
2023-01-09T06:56:00.142Z,97.40
2023-01-09T06:58:27.126Z,97.40
2023-01-09T07:00:59.494Z,97.40
2023-01-09T07:03:26.608Z,97.40
2023-01-09T07:05:56.567Z,97.40
2023-01-09T07:08:26.243Z,97.40
2023-01-09T07:10:53.879Z,97.40
2023-01-09T07:13:20.914Z,97.40
2023-01-09T07:15:49.827Z,97.40
2023-01-09T07:18:16.854Z,97.40
2023-01-09T07:20:43.925Z,97.30
2023-01-09T07:23:14.251Z,97.30
2023-01-09T07:25:46.020Z,97.60
2023-01-09T07:28:15.986Z,97.30
2023-01-09T07:30:43.639Z,97.30
2023-01-09T07:33:10.587Z,97.30
2023-01-09T07:35:38.017Z,97.60
2023-01-09T07:38:05.118Z,97.40
2023-01-09T07:40:32.043Z,97.40
2023-01-09T07:42:59.041Z,97.40
2023-01-09T07:45:26.119Z,97.50
2023-01-09T07:47:56.053Z,97.50
2023-01-09T07:50:23.316Z,97.50
2023-01-09T07:52:50.597Z,97.60
2023-01-09T07:55:21.308Z,97.60
2023-01-09T07:57:56.185Z,97.70
2023-01-09T08:00:23.530Z,97.70
2023-01-09T08:02:54.518Z,97.70
2023-01-09T08:05:21.933Z,97.70
2023-01-09T08:07:50.959Z,97.80
2023-01-09T08:10:24.810Z,97.80
2023-01-09T08:12:51.864Z,97.80
2023-01-09T08:15:19.189Z,97.90
2023-01-09T08:17:46.964Z,97.90
2023-01-09T08:20:16.806Z,98.00
2023-01-09T08:22:49.680Z,98.00
2023-01-09T08:25:17.713Z,98.00
2023-01-09T08:27:45.084Z,98.10
2023-01-09T08:30:12.950Z,98.10
2023-01-09T08:32:41.409Z,98.10
2023-01-09T08:35:11.991Z,98.10
2023-01-09T08:37:39.101Z,98.20
2023-01-09T08:40:06.684Z,98.30
2023-01-09T08:42:52.016Z,98.40
2023-01-09T08:45:40.496Z,98.40
2023-01-09T08:48:07.646Z,98.40
2023-01-09T08:50:36.940Z,98.50
2023-01-09T08:53:04.178Z,98.50
2023-01-09T08:55:31.178Z,98.50
2023-01-09T08:57:58.067Z,98.60
2023-01-09T09:00:26.303Z,98.60
2023-01-09T09:02:59.219Z,98.60
2023-01-09T09:05:28.388Z,98.70
2023-01-09T09:07:56.396Z,98.70
2023-01-09T09:10:25.154Z,98.70
2023-01-09T09:12:56.854Z,98.80
2023-01-09T09:15:25.227Z,99.10
2023-01-09T09:17:58.988Z,98.80
2023-01-09T09:20:29.231Z,98.80
2023-01-09T09:22:56.391Z,98.80
2023-01-09T09:25:24.236Z,98.90
2023-01-09T09:27:51.674Z,98.90
2023-01-09T09:30:20.342Z,98.90
2023-01-09T09:32:50.109Z,99.20
2023-01-09T09:35:21.263Z,98.90
2023-01-09T09:37:59.584Z,99.00
2023-01-09T09:40:41.622Z,98.90
2023-01-09T09:44:06.657Z,99.00
2023-01-09T09:46:49.338Z,98.90
2023-01-09T09:49:21.935Z,98.90
2023-01-09T09:52:29.435Z,98.90
2023-01-09T09:55:00.856Z,98.90
2023-01-09T09:57:36.505Z,99.00
2023-01-09T10:00:06.029Z,99.00
2023-01-09T10:02:53.901Z,99.00
2023-01-09T10:05:42.658Z,99.00
2023-01-09T10:08:38.159Z,99.10
2023-01-09T10:11:10.083Z,99.10
2023-01-09T10:13:56.032Z,99.10
2023-01-09T10:17:03.473Z,99.10
2023-01-09T10:19:33.716Z,99.10
2023-01-09T10:22:25.626Z,99.10
2023-01-09T10:25:18.299Z,99.10
2023-01-09T10:28:00.433Z,99.10
2023-01-09T10:30:39.625Z,99.10
2023-01-09T10:33:10.952Z,99.10
2023-01-09T10:36:02.795Z,99.00
2023-01-09T10:38:34.763Z,98.90
2023-01-09T10:41:25.171Z,98.80
2023-01-09T10:44:15.219Z,98.80
2023-01-09T10:46:48.785Z,98.80
2023-01-09T10:49:19.945Z,99.00
2023-01-09T10:51:52.569Z,98.80
2023-01-09T10:54:23.634Z,98.90
2023-01-09T10:57:16.321Z,98.90
2023-01-09T10:59:43.592Z,98.90
2023-01-09T11:02:32.414Z,98.90
2023-01-09T11:04:59.660Z,98.90
2023-01-09T11:07:37.795Z,99.00
2023-01-09T11:10:08.365Z,99.10
2023-01-09T11:12:36.753Z,99.10
2023-01-09T11:15:23.888Z,99.10
2023-01-09T11:17:52.009Z,99.20
2023-01-09T11:20:19.787Z,99.10
2023-01-09T11:22:53.151Z,99.00
2023-01-09T11:25:24.950Z,98.90
2023-01-09T11:28:18.409Z,98.90
2023-01-09T11:31:02.807Z,98.80
2023-01-09T11:33:34.594Z,98.60
2023-01-09T11:36:15.299Z,98.50
2023-01-09T11:38:57.874Z,98.50
2023-01-09T11:41:25.802Z,98.30
2023-01-09T11:43:55.782Z,98.30
2023-01-09T11:46:35.697Z,98.30
2023-01-09T11:49:06.344Z,98.30
2023-01-09T11:51:35.841Z,98.20
2023-01-09T11:54:16.527Z,98.20
2023-01-09T11:56:44.552Z,98.20
2023-01-09T11:59:15.077Z,98.20
2023-01-09T12:01:57.695Z,98.00
2023-01-09T12:04:34.145Z,97.90
2023-01-09T12:07:19.209Z,97.90
2023-01-09T12:10:10.987Z,97.90
2023-01-09T12:13:01.422Z,97.80
2023-01-09T12:16:16.591Z,97.80
2023-01-09T12:19:28.569Z,97.70
2023-01-09T12:22:29.187Z,97.70
2023-01-09T12:24:59.249Z,97.60
2023-01-09T12:27:47.329Z,97.50
2023-01-09T12:30:46.971Z,97.50
2023-01-09T12:33:38.815Z,97.50
2023-01-09T12:36:08.620Z,97.40
2023-01-09T12:38:55.997Z,97.20
2023-01-09T12:41:48.190Z,97.10
2023-01-09T12:44:35.907Z,97.10
2023-01-09T12:47:25.285Z,97.10
2023-01-09T12:50:14.541Z,97.20
2023-01-09T12:53:00.505Z,97.30
2023-01-09T12:55:33.417Z,97.20
2023-01-09T12:58:08.919Z,97.10
2023-01-09T13:00:43.305Z,97.20
2023-01-09T13:04:09.314Z,97.20
2023-01-09T13:06:43.685Z,97.10
2023-01-09T13:09:39.249Z,97.10
2023-01-09T13:12:24.998Z,97.10
2023-01-09T13:14:58.571Z,97.20
2023-01-09T13:17:30.858Z,97.20
2023-01-09T13:19:58.164Z,97.20
2023-01-09T13:22:28.233Z,97.20
2023-01-09T13:25:21.598Z,97.00
2023-01-09T13:27:58.223Z,96.90
2023-01-09T13:30:45.146Z,96.80
2023-01-09T13:33:24.312Z,96.70
2023-01-09T13:35:57.507Z,96.80
2023-01-09T13:38:30.853Z,96.70
2023-01-09T13:41:33.885Z,96.60
2023-01-09T13:44:02.266Z,96.60
2023-01-09T13:46:44.843Z,96.60
2023-01-09T13:49:39.246Z,96.50
2023-01-09T13:52:30.739Z,96.60
2023-01-09T13:55:26.012Z,96.60
2023-01-09T13:58:08.201Z,96.70
2023-01-09T14:00:38.148Z,96.60
2023-01-09T14:03:35.664Z,96.70
2023-01-09T14:06:14.468Z,96.80
2023-01-09T14:08:42.770Z,96.90
2023-01-09T14:11:18.622Z,97.10
2023-01-09T14:13:51.921Z,97.30
2023-01-09T14:16:25.189Z,97.40
2023-01-09T14:19:27.448Z,97.50
2023-01-09T14:21:56.647Z,97.80
2023-01-09T14:24:40.010Z,97.60
2023-01-09T14:27:47.476Z,97.60
2023-01-09T14:30:26.913Z,97.60
2023-01-09T14:33:02.668Z,97.60
2023-01-09T14:35:38.913Z,97.60
2023-01-09T14:38:26.902Z,97.60
2023-01-09T14:41:43.663Z,97.70
2023-01-09T14:44:27.606Z,97.70
2023-01-09T14:47:01.984Z,97.70
2023-01-09T14:49:41.391Z,97.70
2023-01-09T14:52:27.007Z,97.70
2023-01-09T14:54:58.597Z,97.70
2023-01-09T14:57:36.467Z,97.60
2023-01-09T15:00:15.662Z,97.50
2023-01-09T15:02:44.195Z,97.40
2023-01-09T15:05:23.462Z,97.40
2023-01-09T15:07:57.652Z,97.50
2023-01-09T15:10:48.014Z,97.50
2023-01-09T15:13:21.320Z,97.60
2023-01-09T15:16:00.903Z,97.70
2023-01-09T15:18:32.324Z,97.70
2023-01-09T15:21:02.270Z,97.70
2023-01-09T15:23:31.062Z,97.80
2023-01-09T15:26:14.979Z,97.80
2023-01-09T15:28:43.930Z,97.90
2023-01-09T15:31:16.870Z,97.90
2023-01-09T15:33:49.643Z,97.90
2023-01-09T15:36:26.574Z,98.00
2023-01-09T15:38:54.677Z,98.10
2023-01-09T15:41:51.594Z,98.20
2023-01-09T15:44:27.609Z,98.20
2023-01-09T15:47:03.286Z,98.30
2023-01-09T15:49:33.146Z,98.40
2023-01-09T15:52:33.472Z,98.40
2023-01-09T15:55:35.243Z,98.40
2023-01-09T15:58:32.159Z,98.50
2023-01-09T16:01:06.550Z,98.50
2023-01-09T16:03:40.430Z,98.50
2023-01-09T16:06:14.987Z,98.60
2023-01-09T16:08:56.674Z,98.60
2023-01-09T16:11:37.019Z,98.60
2023-01-09T16:14:13.551Z,98.60
2023-01-09T16:17:44.894Z,98.70
2023-01-09T16:20:24.130Z,98.70
2023-01-09T16:23:01.322Z,98.70
2023-01-09T16:25:37.229Z,98.70
2023-01-09T16:28:31.684Z,98.80
2023-01-09T16:31:07.436Z,98.80
2023-01-09T16:33:44.283Z,98.80
2023-01-09T16:37:01.750Z,98.80
2023-01-09T16:39:47.203Z,98.70
2023-01-09T16:42:43.571Z,98.80
2023-01-09T16:45:39.338Z,98.80
2023-01-09T16:48:28.729Z,98.80
2023-01-09T16:51:03.489Z,98.80
2023-01-09T16:53:32.246Z,98.90
2023-01-09T16:56:01.618Z,98.90
2023-01-09T16:58:32.371Z,98.90
2023-01-09T17:01:18.193Z,99.00
2023-01-09T17:03:48.424Z,99.00
2023-01-09T17:06:34.781Z,99.10
2023-01-09T17:09:02.710Z,99.00
2023-01-09T17:11:38.600Z,99.00
2023-01-09T17:14:07.069Z,99.00
2023-01-09T17:16:48.961Z,99.00
2023-01-09T17:24:57.761Z,99.10
2023-01-09T17:28:40.255Z,99.10
2023-01-09T17:31:30.673Z,99.10
2023-01-09T17:33:58.571Z,99.10
2023-01-09T17:36:35.198Z,99.00
2023-01-09T17:39:10.723Z,99.00
2023-01-09T17:41:52.881Z,99.00
2023-01-09T17:44:20.321Z,98.90
2023-01-09T17:46:47.539Z,98.90
2023-01-09T17:49:17.755Z,98.90
2023-01-09T17:51:48.384Z,98.80
2023-01-09T17:54:15.473Z,98.80
2023-01-09T17:56:46.508Z,98.70
2023-01-09T17:59:15.119Z,98.70
2023-01-09T18:01:44.138Z,98.60
2023-01-09T18:04:19.490Z,98.60
2023-01-09T18:06:48.501Z,98.50
2023-01-09T18:09:20.648Z,98.80
2023-01-09T18:11:55.273Z,98.50
2023-01-09T18:14:34.615Z,98.50
2023-01-09T18:17:02.653Z,98.50
2023-01-09T18:19:31.419Z,98.60
2023-01-09T18:22:07.270Z,98.70
2023-01-09T18:24:34.902Z,98.70
2023-01-09T18:27:01.946Z,98.80
2023-01-09T18:29:54.790Z,98.80
2023-01-09T18:32:21.720Z,98.80
2023-01-09T18:34:49.200Z,99.10
2023-01-09T18:37:26.785Z,98.90
2023-01-09T18:43:59.157Z,98.80
2023-01-09T18:47:01.951Z,98.90
2023-01-09T18:49:35.027Z,98.90
2023-01-09T18:52:07.488Z,98.90
2023-01-09T18:55:07.498Z,98.90
2023-01-09T18:58:39.218Z,98.90
2023-01-09T19:01:16.069Z,98.80
2023-01-09T19:03:43.463Z,98.90
2023-01-09T19:06:21.393Z,98.90
2023-01-09T19:08:48.852Z,98.90
2023-01-09T19:11:15.876Z,98.80
2023-01-09T19:13:43.271Z,98.80
2023-01-09T19:16:11.324Z,98.80
2023-01-09T19:18:41.307Z,98.80
2023-01-09T19:21:22.124Z,98.80
2023-01-09T19:26:38.826Z,98.90
2023-01-09T19:29:20.538Z,98.90
2023-01-09T19:31:53.436Z,98.90
2023-01-09T19:34:20.929Z,98.90
2023-01-09T19:37:00.642Z,98.90
2023-01-09T19:39:42.250Z,98.90
2023-01-09T19:43:02.708Z,98.90
2023-01-09T19:45:50.666Z,98.90
2023-01-09T19:48:21.590Z,99.00
2023-01-09T19:50:49.036Z,99.00
2023-01-09T19:57:05.813Z,99.00
2023-01-09T20:05:09.073Z,99.10
2023-01-09T20:08:53.752Z,99.10
2023-01-09T20:11:54.696Z,99.10
2023-01-09T20:14:22.892Z,99.20
2023-01-09T20:17:03.895Z,99.20
2023-01-09T20:20:01.570Z,99.20
2023-01-09T20:22:29.256Z,99.30
2023-01-09T20:26:37.900Z,99.30
2023-01-09T20:29:23.958Z,99.30
2023-01-09T20:35:13.423Z,99.50
2023-01-09T20:37:48.235Z,99.40
2023-01-09T20:44:25.708Z,99.50
2023-01-09T20:46:53.720Z,99.60
2023-01-09T20:58:06.371Z,99.60
2023-01-09T21:02:24.531Z,99.70
2023-01-09T21:04:29.305Z,99.70
2023-01-09T21:06:56.796Z,99.70
2023-01-09T21:09:42.423Z,99.70
2023-01-09T21:12:29.148Z,99.70
2023-01-09T21:15:06.876Z,99.70
2023-01-09T21:17:42.754Z,99.70
2023-01-09T21:20:19.904Z,99.70
2023-01-09T21:22:50.499Z,99.70
2023-01-09T21:25:17.809Z,99.80
2023-01-09T21:28:12.000Z,99.80
2023-01-09T21:30:44.156Z,99.80
2023-01-09T21:33:11.734Z,99.80
2023-01-09T21:35:43.413Z,99.90
2023-01-09T21:38:13.501Z,99.90
2023-01-09T21:40:40.629Z,99.90
2023-01-09T21:43:34.422Z,99.90
2023-01-09T21:46:19.999Z,99.90
2023-01-09T21:48:47.164Z,99.90
2023-01-09T21:51:16.930Z,99.90
2023-01-09T21:53:44.206Z,99.80
2023-01-09T21:56:11.376Z,99.80
2023-01-09T21:58:38.517Z,99.90
2023-01-09T22:01:05.720Z,99.90
2023-01-09T22:03:32.869Z,99.80
2023-01-09T22:06:04.270Z,99.90
2023-01-09T22:08:31.569Z,99.80
2023-01-09T22:11:00.363Z,99.80
2023-01-09T22:13:28.591Z,99.80
2023-01-09T22:16:02.322Z,99.80
2023-01-09T22:18:29.347Z,99.80
2023-01-09T22:20:56.541Z,99.80
2023-01-09T22:23:23.698Z,99.90
2023-01-09T22:25:50.781Z,99.80
2023-01-09T22:28:17.824Z,99.90
2023-01-09T22:30:44.802Z,99.90
2023-01-09T22:33:12.657Z,99.90
2023-01-09T22:35:41.471Z,99.90
2023-01-09T22:38:10.638Z,99.90
2023-01-09T22:40:39.054Z,99.90
2023-01-09T22:43:06.392Z,99.90
2023-01-09T22:45:33.567Z,99.90
2023-01-09T22:48:00.551Z,99.90
2023-01-09T22:50:27.674Z,99.90
2023-01-09T22:52:57.698Z,99.90
2023-01-09T22:55:25.014Z,99.80
2023-01-09T22:57:52.052Z,99.90
2023-01-09T23:00:19.545Z,99.90
2023-01-09T23:02:47.984Z,99.90
2023-01-09T23:05:15.344Z,99.90
2023-01-09T23:07:42.324Z,99.90
2023-01-09T23:10:10.057Z,99.90
2023-01-09T23:12:37.170Z,99.80
2023-01-09T23:15:04.449Z,99.90
2023-01-09T23:17:32.012Z,99.60
2023-01-09T23:19:59.071Z,99.60
2023-01-09T23:22:26.373Z,99.50
2023-01-09T23:24:56.178Z,99.50
2023-01-09T23:27:23.276Z,99.40
2023-01-09T23:29:50.394Z,99.30
2023-01-09T23:32:17.469Z,99.20
2023-01-09T23:34:45.317Z,99.20
2023-01-09T23:37:14.293Z,99.20
2023-01-09T23:39:41.415Z,99.10
2023-01-09T23:42:29.478Z,99.10
2023-01-09T23:44:59.671Z,99.10
2023-01-09T23:47:26.843Z,99.10
2023-01-09T23:49:57.220Z,99.10
2023-01-09T23:52:24.474Z,99.10
2023-01-09T23:54:51.631Z,99.10
2023-01-09T23:57:18.980Z,99.10
2023-01-09T23:59:47.435Z,99.00
